sensor_id;sensor_type;location;lat;lon;timestamp;temperature;humidity
33007;DHT22;19361;51.598;7.650;2022-08-03T00:02:07;24.80;49.90
33007;DHT22;19361;51.598;7.650;2022-08-03T00:07:08;24.70;50.10
33007;DHT22;19361;51.598;7.650;2022-08-03T00:12:08;24.70;50.20
33007;DHT22;19361;51.598;7.650;2022-08-03T00:17:09;24.60;50.30
33007;DHT22;19361;51.598;7.650;2022-08-03T00:22:10;24.60;50.50
33007;DHT22;19361;51.598;7.650;2022-08-03T00:27:10;24.50;50.50
33007;DHT22;19361;51.598;7.650;2022-08-03T00:32:11;24.50;50.60
33007;DHT22;19361;51.598;7.650;2022-08-03T00:37:12;24.40;50.70
33007;DHT22;19361;51.598;7.650;2022-08-03T00:42:13;24.40;50.90
33007;DHT22;19361;51.598;7.650;2022-08-03T00:47:13;24.30;51.00
33007;DHT22;19361;51.598;7.650;2022-08-03T00:52:14;24.30;51.20
33007;DHT22;19361;51.598;7.650;2022-08-03T00:57:16;24.20;51.30
33007;DHT22;19361;51.598;7.650;2022-08-03T01:02:17;24.20;51.40
33007;DHT22;19361;51.598;7.650;2022-08-03T01:07:24;24.10;51.60
33007;DHT22;19361;51.598;7.650;2022-08-03T01:12:42;24.00;52.00
33007;DHT22;19361;51.598;7.650;2022-08-03T01:17:58;24.00;52.30
33007;DHT22;19361;51.598;7.650;2022-08-03T01:34:15;23.80;52.90
33007;DHT22;19361;51.598;7.650;2022-08-03T01:39:17;23.70;52.40
33007;DHT22;19361;51.598;7.650;2022-08-03T01:44:20;23.70;52.60
33007;DHT22;19361;51.598;7.650;2022-08-03T01:49:23;23.70;52.70
33007;DHT22;19361;51.598;7.650;2022-08-03T01:54:25;23.60;52.80
33007;DHT22;19361;51.598;7.650;2022-08-03T01:59:28;23.60;52.80
33007;DHT22;19361;51.598;7.650;2022-08-03T02:04:30;23.50;52.90
33007;DHT22;19361;51.598;7.650;2022-08-03T02:09:32;23.50;53.00
33007;DHT22;19361;51.598;7.650;2022-08-03T02:14:34;23.50;53.00
33007;DHT22;19361;51.598;7.650;2022-08-03T02:19:35;23.50;53.20
33007;DHT22;19361;51.598;7.650;2022-08-03T02:24:37;23.40;53.20
33007;DHT22;19361;51.598;7.650;2022-08-03T02:29:38;23.40;53.30
33007;DHT22;19361;51.598;7.650;2022-08-03T02:34:44;23.40;53.30
33007;DHT22;19361;51.598;7.650;2022-08-03T02:39:48;23.40;53.70
33007;DHT22;19361;51.598;7.650;2022-08-03T02:44:54;23.30;53.50
33007;DHT22;19361;51.598;7.650;2022-08-03T02:49:57;23.20;53.60
33007;DHT22;19361;51.598;7.650;2022-08-03T02:55:01;23.20;53.70
33007;DHT22;19361;51.598;7.650;2022-08-03T03:00:04;23.20;54.00
33007;DHT22;19361;51.598;7.650;2022-08-03T03:05:05;23.10;53.90
33007;DHT22;19361;51.598;7.650;2022-08-03T03:10:08;23.10;54.00
33007;DHT22;19361;51.598;7.650;2022-08-03T03:15:09;23.10;54.10
33007;DHT22;19361;51.598;7.650;2022-08-03T03:20:11;23.00;54.20
33007;DHT22;19361;51.598;7.650;2022-08-03T03:25:12;23.00;54.30
33007;DHT22;19361;51.598;7.650;2022-08-03T03:30:13;23.00;54.40
33007;DHT22;19361;51.598;7.650;2022-08-03T03:35:14;22.90;54.40
33007;DHT22;19361;51.598;7.650;2022-08-03T03:40:15;22.90;54.60
33007;DHT22;19361;51.598;7.650;2022-08-03T03:45:17;22.80;54.50
33007;DHT22;19361;51.598;7.650;2022-08-03T03:50:18;22.80;54.70
33007;DHT22;19361;51.598;7.650;2022-08-03T03:55:19;22.80;54.90
33007;DHT22;19361;51.598;7.650;2022-08-03T04:00:21;22.70;54.70
33007;DHT22;19361;51.598;7.650;2022-08-03T04:05:22;22.70;54.90
33007;DHT22;19361;51.598;7.650;2022-08-03T04:10:44;22.70;55.10
33007;DHT22;19361;51.598;7.650;2022-08-03T04:15:59;22.70;55.40
33007;DHT22;19361;51.598;7.650;2022-08-03T04:21:02;22.70;55.20
33007;DHT22;19361;51.598;7.650;2022-08-03T04:26:08;22.70;55.60
33007;DHT22;19361;51.598;7.650;2022-08-03T04:56:43;22.90;55.90
33007;DHT22;19361;51.598;7.650;2022-08-03T05:01:44;23.00;55.40
33007;DHT22;19361;51.598;7.650;2022-08-03T05:06:44;23.10;56.00
33007;DHT22;19361;51.598;7.650;2022-08-03T05:11:45;23.50;56.70
33007;DHT22;19361;51.598;7.650;2022-08-03T05:16:46;24.00;57.10
33007;DHT22;19361;51.598;7.650;2022-08-03T05:21:46;24.60;56.90
33007;DHT22;19361;51.598;7.650;2022-08-03T05:26:47;25.30;56.20
33007;DHT22;19361;51.598;7.650;2022-08-03T05:31:48;25.90;55.40
33007;DHT22;19361;51.598;7.650;2022-08-03T05:36:48;26.50;54.60
33007;DHT22;19361;51.598;7.650;2022-08-03T05:41:49;26.90;53.40
33007;DHT22;19361;51.598;7.650;2022-08-03T05:46:50;27.30;53.10
33007;DHT22;19361;51.598;7.650;2022-08-03T05:51:51;27.60;52.20
33007;DHT22;19361;51.598;7.650;2022-08-03T05:56:52;27.90;51.80
33007;DHT22;19361;51.598;7.650;2022-08-03T06:01:52;28.30;51.50
33007;DHT22;19361;51.598;7.650;2022-08-03T06:06:53;28.50;50.60
33007;DHT22;19361;51.598;7.650;2022-08-03T06:11:54;28.70;49.90
33007;DHT22;19361;51.598;7.650;2022-08-03T06:16:54;28.80;49.50
33007;DHT22;19361;51.598;7.650;2022-08-03T06:21:55;28.70;49.00
33007;DHT22;19361;51.598;7.650;2022-08-03T06:26:56;28.50;48.60
33007;DHT22;19361;51.598;7.650;2022-08-03T06:31:57;28.20;48.70
33007;DHT22;19361;51.598;7.650;2022-08-03T06:36:57;27.90;48.90
33007;DHT22;19361;51.598;7.650;2022-08-03T06:41:58;27.70;49.50
33007;DHT22;19361;51.598;7.650;2022-08-03T06:46:59;27.60;49.70
33007;DHT22;19361;51.598;7.650;2022-08-03T06:51:59;27.60;49.90
33007;DHT22;19361;51.598;7.650;2022-08-03T06:57:00;27.60;50.10
33007;DHT22;19361;51.598;7.650;2022-08-03T07:02:01;27.60;50.10
33007;DHT22;19361;51.598;7.650;2022-08-03T07:07:01;27.60;50.20
33007;DHT22;19361;51.598;7.650;2022-08-03T07:12:03;27.60;50.70
33007;DHT22;19361;51.598;7.650;2022-08-03T07:17:05;27.80;50.70
33007;DHT22;19361;51.598;7.650;2022-08-03T07:22:06;28.00;50.90
33007;DHT22;19361;51.598;7.650;2022-08-03T07:27:08;28.10;50.60
33007;DHT22;19361;51.598;7.650;2022-08-03T07:32:09;28.30;49.90
33007;DHT22;19361;51.598;7.650;2022-08-03T07:37:10;28.40;49.90
33007;DHT22;19361;51.598;7.650;2022-08-03T07:42:10;28.50;49.50
33007;DHT22;19361;51.598;7.650;2022-08-03T07:47:11;28.70;49.50
33007;DHT22;19361;51.598;7.650;2022-08-03T07:52:12;28.90;49.30
33007;DHT22;19361;51.598;7.650;2022-08-03T07:57:31;29.00;49.10
33007;DHT22;19361;51.598;7.650;2022-08-03T08:02:32;29.10;48.80
33007;DHT22;19361;51.598;7.650;2022-08-03T08:07:33;29.20;48.70
33007;DHT22;19361;51.598;7.650;2022-08-03T08:12:33;29.40;48.60
33007;DHT22;19361;51.598;7.650;2022-08-03T08:17:52;29.70;48.60
33007;DHT22;19361;51.598;7.650;2022-08-03T08:22:56;29.80;48.40
33007;DHT22;19361;51.598;7.650;2022-08-03T08:27:58;29.90;48.10
33007;DHT22;19361;51.598;7.650;2022-08-03T08:33:01;30.10;47.90
33007;DHT22;19361;51.598;7.650;2022-08-03T08:38:02;30.30;47.30
33007;DHT22;19361;51.598;7.650;2022-08-03T08:43:03;30.50;47.40
33007;DHT22;19361;51.598;7.650;2022-08-03T08:48:04;30.70;46.90
33007;DHT22;19361;51.598;7.650;2022-08-03T08:53:06;30.80;46.80
33007;DHT22;19361;51.598;7.650;2022-08-03T08:58:10;30.90;46.00
33007;DHT22;19361;51.598;7.650;2022-08-03T09:03:12;31.10;46.10
33007;DHT22;19361;51.598;7.650;2022-08-03T09:08:14;31.30;45.30
33007;DHT22;19361;51.598;7.650;2022-08-03T09:13:14;31.40;45.20
33007;DHT22;19361;51.598;7.650;2022-08-03T09:18:27;31.50;44.70
33007;DHT22;19361;51.598;7.650;2022-08-03T09:23:46;31.70;44.10
33007;DHT22;19361;51.598;7.650;2022-08-03T09:28:56;31.80;44.00
33007;DHT22;19361;51.598;7.650;2022-08-03T09:34:02;32.00;43.00
33007;DHT22;19361;51.598;7.650;2022-08-03T09:39:06;32.20;43.40
33007;DHT22;19361;51.598;7.650;2022-08-03T09:44:10;32.30;42.70
33007;DHT22;19361;51.598;7.650;2022-08-03T09:49:12;32.40;43.20
33007;DHT22;19361;51.598;7.650;2022-08-03T09:54:30;32.60;42.40
33007;DHT22;19361;51.598;7.650;2022-08-03T09:59:32;32.70;41.70
33007;DHT22;19361;51.598;7.650;2022-08-03T10:04:33;32.90;41.90
33007;DHT22;19361;51.598;7.650;2022-08-03T10:10:13;33.00;41.70
33007;DHT22;19361;51.598;7.650;2022-08-03T10:15:14;33.10;41.00
33007;DHT22;19361;51.598;7.650;2022-08-03T10:20:15;33.20;41.20
33007;DHT22;19361;51.598;7.650;2022-08-03T10:25:16;33.30;41.00
33007;DHT22;19361;51.598;7.650;2022-08-03T10:30:17;33.40;40.80
